Tucson International Airport
KTUS : now visible

Airfield :











YOU CAN JOIN US ON...

 
LOGIN :

Register | Disclaimer

   EN    FR    IT 

 









Legend :    VFR   Marginal VFR   IFR   Intensive IFR   Very Intensive IFR
Visi :
Ceiling :
>= 8 km
>= 3000ft
5 to 8 km
1000 to 3000 ft
1500m to 5 km
500 to 1000 ft
800 to 1500m
200 to 500 ft
< 800m
< 200 ft
Symbols :   Thunderstorms  Fog  Heavy snow  Heavy precipitations  Wind > 20 kt






- Airport Elevation : 2643 ft
- IATA code : TUS


KTUS - Tucson International

CURRENT METAR :
  • 081953Z 10SM CLR 38/07 A3000 RMK AO2 SLP098 T03830072

EXPIRED METARs :
  • 081853Z VRB06KT 10SM CLR 38/08 A3002 RMK AO2 SLP104 T03780078
  • 081753Z 00000KT 10SM CLR 36/09 A3004 RMK AO2 SLP114 T03560089 10367 20250 58006
  • 081653Z 29005KT 10SM CLR 34/09 A3005 RMK AO2 SLP116 T03390089

TAF KTUS
Valid from the 08 at 18:00 until the 09 at 18:00 UTC


081720Z 0818/0918 24005KT P6SM FEW090
FM082000 32008KT P6SM SCT110
FM090500 15007KT P6SM FEW120
KZAB FIR / North America



MET'MAP, your aeronautical weather chart ! - Copyright ORBIFLY December 2007 - Disclaimer

ORBIFLY MET'MAP TEAM :

Programming & Development : Alexandra Zaïnal
Concept & original design : Baudouin d'Aumeries
Assistance for programming : Marc-Olivier Méhu
Technical & hardware support : Manuel Goepfert

Contact : metmap@orbifly.com




SOURCES & CREDITS :

   NOAA       Earth
Advisory